createdAt,value
2022-10-22T00:01:01.994Z,63.72
2022-10-22T00:03:31.370Z,63.67
2022-10-22T00:05:59.541Z,63.68
2022-10-22T00:08:27.556Z,63.72
2022-10-22T00:10:55.577Z,63.66
2022-10-22T00:13:23.917Z,63.57
2022-10-22T00:15:51.909Z,63.74
2022-10-22T00:18:19.955Z,63.70
2022-10-22T00:20:49.317Z,63.92
2022-10-22T00:23:17.335Z,63.60
2022-10-22T00:25:45.337Z,63.56
2022-10-22T00:28:13.335Z,63.40
2022-10-22T00:30:41.714Z,63.34
2022-10-22T00:33:09.725Z,63.31
2022-10-22T00:35:37.726Z,63.26
2022-10-22T00:38:07.178Z,63.44
2022-10-22T00:40:35.302Z,63.49
2022-10-22T00:43:03.273Z,63.40
2022-10-22T00:45:31.557Z,63.79
2022-10-22T00:48:02.796Z,63.29
2022-10-22T00:50:35.234Z,63.31
2022-10-22T00:53:04.746Z,63.05
2022-10-22T00:55:35.049Z,63.37
2022-10-22T00:58:03.563Z,63.27
2022-10-22T01:00:31.860Z,63.35
2022-10-22T01:03:00.830Z,63.15
2022-10-22T01:05:30.489Z,63.11
2022-10-22T01:07:58.675Z,62.98
2022-10-22T01:10:39.898Z,62.79
2022-10-22T01:13:18.181Z,62.78
2022-10-22T01:15:53.174Z,62.79
2022-10-22T01:18:25.536Z,62.76
2022-10-22T01:21:12.702Z,62.86
2022-10-22T01:24:15.214Z,62.88
2022-10-22T01:26:58.299Z,62.67
2022-10-22T01:29:32.014Z,62.60
2022-10-22T01:32:03.001Z,62.73
2022-10-22T01:34:33.280Z,62.82
2022-10-22T01:37:01.544Z,63.04
2022-10-22T01:39:32.078Z,63.05
2022-10-22T01:42:00.400Z,62.89
2022-10-22T01:44:31.677Z,62.75
2022-10-22T01:47:10.575Z,63.10
2022-10-22T01:50:00.352Z,63.21
2022-10-22T01:52:36.911Z,63.34
2022-10-22T01:55:10.755Z,63.32
2022-10-22T01:57:45.230Z,63.20
2022-10-22T02:00:18.557Z,63.14
2022-10-22T02:02:52.511Z,63.14
2022-10-22T02:05:25.182Z,63.26
2022-10-22T02:07:59.438Z,63.44
2022-10-22T02:10:28.491Z,63.43
2022-10-22T02:12:58.611Z,63.37
2022-10-22T02:15:30.737Z,63.20
2022-10-22T02:18:01.833Z,63.11
2022-10-22T02:20:32.526Z,63.08
2022-10-22T02:23:01.423Z,63.25
2022-10-22T02:25:32.942Z,63.26
2022-10-22T02:28:08.398Z,63.09
2022-10-22T02:30:39.836Z,63.27
2022-10-22T02:33:12.977Z,63.11
2022-10-22T02:35:43.716Z,63.03
2022-10-22T02:38:12.683Z,62.92
2022-10-22T02:40:40.804Z,63.13
2022-10-22T02:43:08.821Z,63.35
2022-10-22T02:45:39.119Z,63.53
2022-10-22T02:48:07.775Z,63.50
2022-10-22T02:50:35.863Z,63.57
2022-10-22T02:53:03.879Z,63.34
2022-10-22T02:55:31.876Z,63.32
2022-10-22T02:57:59.870Z,63.21
2022-10-22T03:00:27.955Z,63.45
2022-10-22T03:02:57.359Z,63.66
2022-10-22T03:05:25.354Z,63.70
2022-10-22T03:07:53.365Z,63.91
2022-10-22T03:10:21.347Z,63.73
2022-10-22T03:12:49.378Z,63.65
2022-10-22T03:15:17.648Z,63.40
2022-10-22T03:17:45.710Z,63.48
2022-10-22T03:20:15.138Z,63.50
2022-10-22T03:22:44.206Z,63.53
2022-10-22T03:25:15.308Z,63.50
2022-10-22T03:27:44.038Z,63.74
2022-10-22T03:30:12.946Z,63.70
2022-10-22T03:32:40.908Z,63.72
2022-10-22T03:35:09.494Z,63.54
2022-10-22T03:37:39.732Z,63.44
2022-10-22T03:40:11.469Z,63.38
2022-10-22T03:42:39.740Z,63.42
2022-10-22T03:45:09.210Z,63.52
2022-10-22T03:47:37.877Z,63.60
2022-10-22T03:50:07.395Z,63.44
2022-10-22T03:52:38.600Z,63.30
2022-10-22T03:55:07.869Z,63.41
2022-10-22T03:57:35.980Z,63.53
2022-10-22T04:00:06.312Z,63.70
2022-10-22T04:02:34.282Z,63.78
2022-10-22T04:05:02.323Z,63.78
2022-10-22T04:07:30.474Z,63.66
2022-10-22T04:09:59.889Z,63.58
2022-10-22T04:12:27.889Z,63.68
2022-10-22T04:14:55.901Z,63.60
2022-10-22T04:17:23.948Z,63.59
2022-10-22T04:19:51.957Z,63.60
2022-10-22T04:22:19.944Z,63.62
2022-10-22T04:24:48.014Z,63.51
2022-10-22T04:27:17.417Z,63.40
2022-10-22T04:29:45.434Z,63.69
2022-10-22T04:32:13.456Z,63.63
2022-10-22T04:34:41.430Z,63.66
2022-10-22T04:37:09.446Z,63.79
2022-10-22T04:39:37.450Z,63.83
2022-10-22T04:42:05.873Z,63.82
2022-10-22T04:44:35.441Z,63.47
2022-10-22T04:47:03.494Z,63.41
2022-10-22T04:49:31.497Z,63.53
2022-10-22T04:51:59.483Z,63.65
2022-10-22T04:54:30.502Z,63.59
2022-10-22T04:57:01.315Z,63.54
2022-10-22T04:59:29.391Z,63.85
2022-10-22T05:01:58.752Z,63.90
2022-10-22T05:04:26.747Z,63.85
2022-10-22T05:06:54.767Z,63.74
2022-10-22T05:09:22.864Z,64.14
2022-10-22T05:11:52.994Z,64.02
2022-10-22T05:14:23.330Z,63.95
2022-10-22T05:16:52.300Z,64.02
2022-10-22T05:19:24.422Z,63.87
2022-10-22T05:21:52.852Z,63.78
2022-10-22T05:24:20.889Z,63.71
2022-10-22T05:26:50.894Z,63.69
2022-10-22T05:29:19.229Z,63.81
2022-10-22T05:31:47.290Z,63.79
2022-10-22T05:34:15.654Z,63.89
2022-10-22T05:36:45.094Z,63.89
2022-10-22T05:39:13.806Z,63.71
2022-10-22T05:41:41.793Z,63.47
2022-10-22T05:44:13.068Z,63.78
2022-10-22T05:46:43.310Z,63.87
2022-10-22T05:49:14.715Z,63.79
2022-10-22T05:51:44.300Z,63.92
2022-10-22T05:54:17.786Z,63.83
2022-10-22T05:56:45.770Z,64.05
2022-10-22T05:59:13.858Z,64.16
2022-10-22T06:01:42.277Z,64.26
2022-10-22T06:04:12.954Z,63.93
2022-10-22T06:06:44.448Z,63.78
2022-10-22T06:09:18.441Z,63.64
2022-10-22T06:11:47.721Z,63.79
2022-10-22T06:14:16.426Z,63.92
2022-10-22T06:16:46.359Z,63.79
2022-10-22T06:19:16.749Z,63.69
2022-10-22T06:21:45.539Z,63.73
2022-10-22T06:24:15.336Z,63.82
2022-10-22T06:26:43.801Z,63.96
2022-10-22T06:29:12.322Z,64.14
2022-10-22T06:31:40.320Z,64.17
2022-10-22T06:34:11.736Z,64.10
2022-10-22T06:39:16.982Z,64.07
2022-10-22T06:41:45.068Z,64.05
2022-10-22T06:44:19.146Z,64.08
2022-10-22T06:46:50.053Z,64.10
2022-10-22T06:49:18.214Z,64.11
2022-10-22T06:51:49.686Z,64.18
2022-10-22T06:54:20.403Z,64.47
2022-10-22T06:56:48.666Z,64.57
2022-10-22T06:59:16.726Z,64.41
2022-10-22T07:01:44.754Z,64.50
2022-10-22T07:04:12.845Z,64.31
2022-10-22T07:06:40.903Z,64.30
2022-10-22T07:09:09.007Z,64.40
2022-10-22T07:11:42.017Z,64.37
2022-10-22T07:14:10.905Z,64.34
2022-10-22T07:16:39.153Z,64.28
2022-10-22T07:19:07.180Z,64.37
2022-10-22T07:21:35.477Z,64.40
2022-10-22T07:24:03.493Z,64.69
2022-10-22T07:26:32.745Z,65.29
2022-10-22T07:29:02.492Z,64.98
2022-10-22T07:31:31.102Z,64.13
2022-10-22T07:33:59.467Z,63.09
2022-10-22T07:36:27.688Z,62.39
2022-10-22T07:38:59.702Z,63.15
2022-10-22T07:41:33.676Z,64.30
2022-10-22T07:44:03.195Z,64.58
2022-10-22T07:46:31.505Z,63.89
2022-10-22T07:48:59.587Z,62.84
2022-10-22T07:51:28.344Z,61.70
2022-10-22T07:53:56.507Z,60.79
2022-10-22T07:56:24.607Z,60.41
2022-10-22T07:58:52.673Z,60.09
2022-10-22T08:01:22.169Z,60.17
2022-10-22T08:03:50.234Z,60.15
2022-10-22T08:06:18.795Z,60.55
2022-10-22T08:08:47.083Z,60.83
2022-10-22T08:11:15.224Z,59.99
2022-10-22T08:13:45.540Z,60.57
2022-10-22T08:16:14.187Z,59.26
2022-10-22T08:18:43.789Z,58.47
2022-10-22T08:21:12.229Z,58.11
2022-10-22T08:23:40.569Z,58.48
2022-10-22T08:26:08.612Z,57.45
2022-10-22T08:28:37.268Z,55.09
2022-10-22T08:31:07.365Z,54.07
2022-10-22T08:33:35.481Z,54.67
2022-10-22T08:36:05.239Z,54.23
2022-10-22T08:38:33.465Z,54.55
2022-10-22T08:41:08.742Z,54.33
2022-10-22T08:44:08.238Z,53.98
2022-10-22T08:46:51.090Z,54.01
2022-10-22T08:49:24.009Z,54.49
2022-10-22T08:51:54.121Z,55.29
2022-10-22T08:54:33.474Z,55.13
2022-10-22T08:57:32.708Z,55.23
2022-10-22T09:00:05.674Z,55.23
2022-10-22T09:02:53.376Z,55.59
2022-10-22T09:05:34.566Z,55.40
2022-10-22T09:08:04.146Z,54.53
2022-10-22T09:10:36.518Z,55.05
2022-10-22T09:13:04.661Z,54.07
2022-10-22T09:15:32.720Z,52.99
2022-10-22T09:18:11.657Z,51.86
2022-10-22T09:20:46.151Z,52.06
2022-10-22T09:23:26.561Z,51.75
2022-10-22T09:25:55.464Z,52.31
2022-10-22T09:28:23.564Z,52.91
2022-10-22T09:30:51.818Z,53.57
2022-10-22T09:33:24.732Z,54.17
2022-10-22T09:35:55.040Z,54.63
2022-10-22T09:38:27.397Z,54.67
2022-10-22T09:40:57.783Z,55.49
2022-10-22T09:43:26.189Z,55.13
2022-10-22T09:45:58.549Z,54.93
2022-10-22T09:48:32.170Z,55.58
2022-10-22T09:51:06.395Z,54.56
2022-10-22T09:53:43.597Z,53.66
2022-10-22T09:56:20.515Z,53.15
2022-10-22T09:58:51.303Z,51.67
2022-10-22T10:01:21.286Z,50.95
2022-10-22T10:04:08.453Z,49.61
2022-10-22T10:06:56.221Z,49.56
2022-10-22T10:09:53.811Z,50.72
2022-10-22T10:12:31.986Z,51.17
2022-10-22T10:15:10.044Z,49.84
2022-10-22T10:17:45.071Z,47.90
2022-10-22T10:20:25.129Z,47.69
2022-10-22T10:22:59.768Z,47.22
2022-10-22T10:25:38.746Z,47.44
2022-10-22T10:28:20.986Z,48.45
2022-10-22T10:31:13.016Z,46.22
2022-10-22T10:33:52.966Z,45.12
2022-10-22T10:36:33.179Z,45.37
2022-10-22T10:39:06.337Z,46.84
2022-10-22T10:41:45.124Z,45.59
2022-10-22T10:44:38.405Z,42.99
2022-10-22T10:47:19.882Z,42.87
2022-10-22T10:49:49.048Z,43.36
2022-10-22T10:52:30.741Z,44.11
2022-10-22T10:55:10.555Z,44.98
2022-10-22T10:57:48.095Z,45.93
2022-10-22T11:00:19.813Z,47.28
2022-10-22T11:03:33.680Z,48.02
2022-10-22T11:06:04.685Z,49.66
2022-10-22T11:08:35.719Z,50.08
2022-10-22T11:11:08.571Z,50.36
2022-10-22T11:13:42.193Z,50.84
2022-10-22T11:16:17.967Z,51.28
2022-10-22T11:18:49.887Z,51.72
2022-10-22T11:21:25.997Z,51.73
2022-10-22T11:24:02.255Z,51.90
2022-10-22T11:26:39.119Z,51.97
2022-10-22T11:29:14.307Z,52.11
2022-10-22T11:31:43.178Z,52.56
2022-10-22T11:34:34.473Z,52.92
2022-10-22T11:37:05.132Z,53.17
2022-10-22T11:39:40.019Z,53.23
2022-10-22T11:42:12.066Z,53.37
2022-10-22T11:45:03.636Z,53.30
2022-10-22T11:47:35.424Z,53.60
2022-10-22T11:50:28.507Z,53.68
2022-10-22T11:53:03.030Z,53.74
2022-10-22T11:55:49.324Z,53.99
2022-10-22T11:58:42.320Z,53.84
2022-10-22T12:01:25.844Z,53.84
2022-10-22T12:04:15.413Z,54.08
2022-10-22T12:07:01.407Z,54.07
2022-10-22T12:09:32.875Z,54.43
2022-10-22T12:12:13.702Z,54.39
2022-10-22T12:14:54.273Z,54.46
2022-10-22T12:17:25.007Z,54.67
2022-10-22T12:20:01.986Z,54.68
2022-10-22T12:22:33.317Z,54.68
2022-10-22T12:25:04.096Z,54.74
2022-10-22T12:27:37.972Z,54.74
2022-10-22T12:30:21.302Z,54.62
2022-10-22T12:32:53.880Z,54.65
2022-10-22T12:35:25.861Z,54.60
2022-10-22T12:37:56.490Z,54.61
2022-10-22T12:40:26.832Z,54.86
2022-10-22T12:42:57.021Z,54.95
2022-10-22T12:45:28.648Z,54.88
2022-10-22T12:48:01.696Z,54.90
2022-10-22T12:50:35.275Z,55.36
2022-10-22T12:53:03.587Z,55.58
2022-10-22T12:55:34.920Z,55.44
2022-10-22T12:58:07.255Z,55.08
2022-10-22T13:00:37.055Z,55.07
2022-10-22T13:03:08.271Z,54.89
2022-10-22T13:05:39.904Z,55.04
2022-10-22T13:08:12.650Z,55.13
2022-10-22T13:10:42.647Z,55.33
2022-10-22T13:13:33.348Z,55.03
2022-10-22T13:16:19.484Z,54.11
2022-10-22T13:18:49.900Z,54.10
2022-10-22T13:21:35.336Z,54.20
2022-10-22T13:24:05.893Z,54.39
2022-10-22T13:26:36.734Z,54.42
2022-10-22T13:29:12.233Z,54.61
2022-10-22T13:31:47.143Z,54.81
2022-10-22T13:34:19.946Z,55.06
2022-10-22T13:36:48.712Z,55.19
2022-10-22T13:39:19.685Z,55.39
2022-10-22T13:41:50.319Z,55.24
2022-10-22T13:44:18.894Z,55.69
2022-10-22T13:46:47.755Z,56.08
2022-10-22T13:49:19.057Z,56.03
2022-10-22T13:51:48.160Z,56.10
2022-10-22T13:54:19.969Z,55.94
2022-10-22T13:56:48.420Z,55.86
2022-10-22T13:59:19.717Z,56.08
2022-10-22T14:01:51.206Z,56.95
2022-10-22T14:04:20.924Z,56.90
2022-10-22T14:06:49.218Z,57.02
2022-10-22T14:09:23.131Z,56.63
2022-10-22T14:11:51.380Z,56.64
2022-10-22T14:14:19.635Z,56.99
2022-10-22T14:16:48.122Z,56.96
2022-10-22T14:19:18.993Z,56.99
2022-10-22T14:21:49.342Z,57.21
2022-10-22T14:24:17.698Z,57.31
2022-10-22T14:26:45.945Z,57.55
2022-10-22T14:29:14.283Z,57.81
2022-10-22T14:31:44.973Z,57.77
2022-10-22T14:34:15.661Z,58.03
2022-10-22T14:36:44.753Z,57.71
2022-10-22T14:39:14.991Z,57.39
2022-10-22T14:41:43.882Z,57.17
2022-10-22T14:44:14.384Z,56.97
2022-10-22T14:46:44.463Z,57.23
2022-10-22T14:49:13.291Z,56.96
2022-10-22T14:51:41.926Z,56.70
2022-10-22T14:54:10.168Z,57.02
2022-10-22T14:56:39.884Z,56.41
2022-10-22T14:59:08.184Z,55.26
2022-10-22T15:01:36.483Z,53.97
2022-10-22T15:04:04.978Z,53.11
2022-10-22T15:06:33.276Z,53.33
2022-10-22T15:09:01.757Z,53.88
2022-10-22T15:11:30.025Z,54.26
2022-10-22T15:13:59.770Z,54.57
2022-10-22T15:16:28.126Z,54.95
2022-10-22T15:18:57.293Z,55.26
2022-10-22T15:21:25.618Z,55.40
2022-10-22T15:23:53.901Z,55.60
2022-10-22T15:26:22.192Z,55.74
2022-10-22T15:28:50.517Z,55.68
2022-10-22T15:31:44.503Z,55.38
2022-10-22T15:34:12.964Z,55.58
2022-10-22T15:36:41.290Z,55.75
2022-10-22T15:39:10.808Z,55.77
2022-10-22T15:41:39.412Z,55.89
2022-10-22T15:44:08.671Z,55.72
2022-10-22T15:46:38.437Z,55.94
2022-10-22T15:49:06.754Z,55.84
2022-10-22T15:51:35.067Z,55.87
2022-10-22T15:54:06.445Z,56.01
2022-10-22T15:56:37.625Z,56.09
2022-10-22T15:59:05.951Z,56.27
2022-10-22T16:01:35.779Z,56.30
2022-10-22T16:04:06.262Z,56.26
2022-10-22T16:06:37.648Z,56.42
2022-10-22T16:09:09.318Z,56.41
2022-10-22T16:11:38.450Z,56.32
2022-10-22T16:14:07.147Z,56.36
2022-10-22T16:16:39.419Z,56.55
2022-10-22T16:19:08.772Z,56.64
2022-10-22T16:21:36.826Z,56.71
2022-10-22T16:24:06.335Z,56.75
2022-10-22T16:26:35.313Z,56.70
2022-10-22T16:29:04.218Z,56.67
2022-10-22T16:31:32.226Z,56.67
2022-10-22T16:34:00.231Z,56.69
2022-10-22T16:36:29.662Z,56.89
2022-10-22T16:38:57.721Z,57.16
2022-10-22T16:41:34.861Z,57.17
2022-10-22T16:44:05.368Z,57.24
2022-10-22T16:46:34.147Z,57.56
2022-10-22T16:49:02.148Z,57.84
2022-10-22T16:51:31.567Z,57.96
2022-10-22T16:53:59.554Z,58.22
2022-10-22T16:56:28.045Z,58.22
2022-10-22T16:58:57.794Z,58.14
2022-10-22T17:01:29.063Z,58.05
2022-10-22T17:03:57.221Z,58.09
2022-10-22T17:06:25.893Z,58.21
2022-10-22T17:08:55.444Z,58.17
2022-10-22T17:11:25.429Z,58.35
2022-10-22T17:13:55.177Z,58.19
2022-10-22T17:16:24.894Z,58.22
2022-10-22T17:18:54.669Z,58.21
2022-10-22T17:21:22.813Z,58.22
2022-10-22T17:23:54.667Z,58.13
2022-10-22T17:26:26.486Z,58.09
2022-10-22T17:28:55.095Z,58.25
2022-10-22T17:31:24.581Z,58.27
2022-10-22T17:33:54.794Z,57.87
2022-10-22T17:36:23.943Z,57.80
2022-10-22T17:38:54.289Z,57.75
2022-10-22T17:41:26.112Z,57.81
2022-10-22T17:43:54.326Z,57.83
2022-10-22T17:46:24.525Z,57.89
2022-10-22T17:48:53.267Z,57.85
2022-10-22T17:51:22.569Z,57.84
2022-10-22T17:53:51.298Z,57.93
2022-10-22T17:56:20.834Z,58.19
2022-10-22T17:58:50.663Z,58.28
2022-10-22T18:01:21.381Z,58.28
2022-10-22T18:03:49.657Z,58.29
2022-10-22T18:06:17.861Z,58.29
2022-10-22T18:08:46.103Z,58.54
2022-10-22T18:11:15.655Z,58.63
2022-10-22T18:13:43.814Z,58.58
2022-10-22T18:16:13.629Z,58.50
2022-10-22T18:18:41.726Z,58.47
2022-10-22T18:21:09.690Z,58.45
2022-10-22T18:23:38.022Z,58.41
2022-10-22T18:26:06.565Z,58.22
2022-10-22T18:28:34.821Z,58.28
2022-10-22T18:31:07.283Z,58.23
2022-10-22T18:33:37.842Z,58.38
2022-10-22T18:36:07.823Z,58.41
2022-10-22T18:38:38.183Z,58.41
2022-10-22T18:41:07.914Z,58.17
2022-10-22T18:43:36.678Z,58.20
2022-10-22T18:46:08.145Z,58.16
2022-10-22T18:48:37.941Z,58.16
2022-10-22T18:51:08.483Z,58.13
2022-10-22T18:53:36.874Z,58.08
2022-10-22T18:56:06.611Z,58.09
2022-10-22T18:58:38.944Z,58.18
2022-10-22T19:01:10.565Z,58.11
2022-10-22T19:03:40.006Z,58.19
2022-10-22T19:06:08.789Z,58.29
2022-10-22T19:08:37.984Z,58.34
2022-10-22T19:11:11.217Z,58.39
2022-10-22T19:13:39.269Z,58.37
2022-10-22T19:16:09.237Z,58.41
2022-10-22T19:18:39.581Z,58.07
2022-10-22T19:21:07.614Z,58.00
2022-10-22T19:23:35.783Z,58.47
2022-10-22T19:26:06.953Z,58.71
2022-10-22T19:28:35.090Z,58.96
2022-10-22T19:31:05.515Z,58.98
2022-10-22T19:33:35.130Z,59.40
2022-10-22T19:36:07.052Z,59.25
2022-10-22T19:38:35.158Z,59.48
2022-10-22T19:41:03.134Z,59.75
2022-10-22T19:43:31.150Z,59.90
2022-10-22T19:45:59.141Z,59.82
2022-10-22T19:48:28.715Z,59.87
2022-10-22T19:51:02.760Z,59.93
2022-10-22T19:53:32.731Z,60.15
2022-10-22T19:56:01.748Z,60.58
2022-10-22T19:58:29.878Z,60.42
2022-10-22T20:00:57.931Z,60.26
2022-10-22T20:03:26.006Z,60.42
2022-10-22T20:05:54.066Z,60.46
2022-10-22T20:08:22.072Z,60.29
2022-10-22T20:10:51.489Z,60.57
2022-10-22T20:13:19.502Z,60.41
2022-10-22T20:15:49.321Z,60.46
2022-10-22T20:18:17.453Z,60.35
2022-10-22T20:20:45.541Z,60.35
2022-10-22T20:23:13.601Z,60.18
2022-10-22T20:25:43.547Z,60.19
2022-10-22T20:28:14.952Z,60.02
2022-10-22T20:30:43.458Z,60.18
2022-10-22T20:33:16.574Z,60.17
2022-10-22T20:35:44.913Z,60.36
2022-10-22T20:38:15.748Z,60.31
2022-10-22T20:40:43.785Z,60.24
2022-10-22T20:43:13.178Z,60.04
2022-10-22T20:45:41.197Z,59.99
2022-10-22T20:48:09.924Z,59.93
2022-10-22T20:50:38.279Z,60.30
2022-10-22T20:53:06.282Z,60.31
2022-10-22T20:55:34.332Z,60.42
2022-10-22T20:58:02.388Z,60.31
2022-10-22T21:00:35.828Z,60.00
2022-10-22T21:03:03.905Z,59.92
2022-10-22T21:05:31.881Z,59.82
2022-10-22T21:07:59.898Z,59.80
2022-10-22T21:10:32.286Z,59.72
2022-10-22T21:13:01.210Z,59.69
2022-10-22T21:15:29.394Z,59.71
2022-10-22T21:17:58.761Z,59.67
2022-10-22T21:20:26.756Z,59.67
2022-10-22T21:22:54.773Z,59.70
2022-10-22T21:25:22.750Z,59.74
2022-10-22T21:27:50.899Z,59.90
2022-10-22T21:30:18.954Z,60.02
2022-10-22T21:32:46.921Z,60.00
2022-10-22T21:35:16.431Z,60.67
2022-10-22T21:37:44.621Z,60.44
2022-10-22T21:40:13.649Z,60.25
2022-10-22T21:42:41.730Z,60.15
2022-10-22T21:45:13.173Z,59.86
2022-10-22T21:47:43.223Z,59.84
2022-10-22T21:50:11.412Z,59.90
2022-10-22T21:52:40.798Z,60.01
2022-10-22T21:55:09.611Z,60.10
2022-10-22T21:57:37.717Z,60.13
2022-10-22T22:00:07.203Z,60.28
2022-10-22T22:02:35.240Z,60.25
2022-10-22T22:05:03.250Z,60.32
2022-10-22T22:07:31.366Z,60.32
2022-10-22T22:10:00.765Z,60.38
2022-10-22T22:12:28.742Z,60.55
2022-10-22T22:14:56.890Z,60.51
2022-10-22T22:17:24.922Z,60.69
2022-10-22T22:19:52.945Z,60.67
2022-10-22T22:22:20.939Z,60.83
2022-10-22T22:24:49.090Z,60.79
2022-10-22T22:29:46.366Z,60.99
2022-10-22T22:32:15.820Z,61.25
2022-10-22T22:34:43.957Z,61.48
2022-10-22T22:37:12.000Z,61.57
2022-10-22T22:39:40.110Z,61.73
2022-10-22T22:42:08.106Z,61.61
2022-10-22T22:44:37.498Z,61.87
2022-10-22T22:47:05.678Z,62.31
2022-10-22T22:49:35.508Z,62.47
2022-10-22T22:52:03.966Z,62.50
2022-10-22T22:54:32.030Z,62.48
2022-10-22T22:57:00.094Z,62.46
2022-10-22T22:59:28.086Z,62.82
2022-10-22T23:01:57.616Z,62.65
2022-10-22T23:04:26.308Z,62.59
2022-10-22T23:06:54.322Z,62.38
2022-10-22T23:09:22.474Z,62.24
2022-10-22T23:11:50.854Z,62.79
2022-10-22T23:14:20.698Z,62.69
2022-10-22T23:16:51.031Z,62.69
2022-10-22T23:19:22.105Z,62.58
2022-10-22T23:21:51.825Z,62.70
2022-10-22T23:24:21.829Z,62.75
2022-10-22T23:26:52.018Z,62.76
2022-10-22T23:29:22.274Z,62.75
2022-10-22T23:31:50.954Z,62.71
2022-10-22T23:34:22.482Z,62.68
2022-10-22T23:36:51.229Z,62.83
2022-10-22T23:39:20.699Z,63.07
2022-10-22T23:41:48.673Z,63.05
2022-10-22T23:44:16.872Z,62.82
2022-10-22T23:46:45.034Z,62.64
2022-10-22T23:49:13.233Z,62.99
2022-10-22T23:51:42.974Z,63.13
2022-10-22T23:54:14.435Z,63.43
2022-10-22T23:56:42.645Z,63.64
2022-10-22T23:59:11.320Z,63.76
